KELM

Elmira / Corning Regional Airport

Elmira/Corning, New York, USA
METAR KELM 170653Z AUTO 23006KT 7SM FEW003 OVC010 02/01 A2982 RMK AO2 SLP105 T00220011
Observed Flight Rules
Dec-17 @ 06:53 UTC (35 minutes ago) Marginal Visual Flight Rules
Wind Visibility Clouds
230° at 6 knots 7 miles
  • Few at 300' AGL
  • Overcast at 1,000' AGL
Temperatures Readings
Current 2°C / 36°F
Dewpoint 1°C / 34°F
Humidity 93%
Altimeter 29.82" Hg
Pressure 1010.5 hPa
Elevation 302
METAR KELM 170653Z AUTO 23006KT 7SM FEW003 OVC010 02/01 A2982 RMK AO2 SLP105 T00220011
Observed Flight Rules
Dec-17 @ 06:53 UTC
(35 minutes ago)
MVFR
Wind Visibility
230° at 6 knots 7 miles
Clouds
  • Few at 300' AGL
  • Overcast at 1,000' AGL
Temperature Dewpoint
2°C / 36°F 1°C / 34°F
Humidity Altimeter Pressure
93% 29.82" Hg 1010.5 hPa